Maersk Weymouth — VRFS9 — position and weather

sailwx.info

Track history (hours):
 
Tides and Currents Weather Stations Pressure Air Temp Water Temp Dewpoint Dewpoint Depression Visibility Wind Speed Wind Dir Waves Ship Positions

Maersk Weymouth

Last reported at 2016-Aug-31 14:32 UTC. Time now 2016-Aug-31 23:35 UTC.
Position N 36°36' W 074°35'.

Length 175 m; draft 6.8 m.

Type: Cargo ship. MMSI: 477622100.

Date/timePositionNaut miles runAvg speedWind from/ knotsBaromVisibWave heightAir tempDewpointWater temp
2016-Aug-31 14:32N 36°36' W 074°35'1515.7
2016-Aug-31 13:33N 36°51' W 074°32'1616.2
2016-Aug-31 12:34N 37°07' W 074°29'1616.0
2016-Aug-31 11:33N 37°22' W 074°25'1616.1
2016-Aug-31 10:34N 37°38' W 074°21'1616.1
2016-Aug-31 09:33N 37°54' W 074°18'1615.8
2016-Aug-31 08:33N 38°09' W 074°14'6315.6
2016-Aug-31 04:32N 39°11' W 073°59'1715.3
2016-Aug-31 03:26N 39°28' W 073°55'1314.4
2016-Aug-31 02:33N 39°40' W 073°54'1515.1
2016-Aug-31 01:33N 39°55' W 073°52'2215.1
2016-Aug-31 00:06N 40°17' W 073°49'914.5
2016-Aug-30 23:30N 40°26' W 073°49'1111.7
2016-Aug-30 22:33N 40°32' W 074°01'8 8.2
2016-Aug-30 21:33N 40°39' W 074°08'2 2.4
2016-Aug-30 20:33N 40°39' W 074°11'0 0.0
2016-Aug-30 19:28N 40°39' W 074°11'0 0.0
2016-Aug-30 18:25N 40°39' W 074°11'0 0.0
2016-Aug-30 17:31N 40°39' W 074°11'0 0.0
2016-Aug-30 16:31N 40°39' W 074°11'0 0.0
2016-Aug-30 15:31N 40°39' W 074°11'0 0.0
2016-Aug-30 14:25N 40°39' W 074°11'0 0.0
2016-Aug-30 13:31N 40°39' W 074°11'0 0.0
2016-Aug-30 12:31N 40°39' W 074°11'0 0.0
2016-Aug-30 11:31N 40°39' W 074°11'2 2.0
2016-Aug-30 10:34N 40°39' W 074°09'7 7.2
2016-Aug-30 09:34N 40°34' W 074°02'1212.3
2016-Aug-30 08:33N 40°27' W 073°48'21 1.8
2016-Aug-29 20:33N 40°06' W 073°41'6 6.2
2016-Aug-29 19:33N 40°01' W 073°44'7 7.4
2016-Aug-29 18:33N 39°53' W 073°43'7 7.3
2016-Aug-29 17:33N 39°46' W 073°43'7 6.9
2016-Aug-29 16:33N 39°39' W 073°43'7 6.8
2016-Aug-29 15:33N 39°33' W 073°46'7 6.6
2016-Aug-29 14:33N 39°27' W 073°50'7 6.6
2016-Aug-29 13:33N 39°21' W 073°53'7 6.8
2016-Aug-29 12:33N 39°15' W 073°57'7 6.9
2016-Aug-29 11:33N 39°09' W 074°01'7 7.3
2016-Aug-29 10:33N 39°04' W 074°08'7 7.5
2016-Aug-29 09:33N 38°59' W 074°15'7 7.1
2016-Aug-29 08:33N 38°54' W 074°22'7 7.1
2016-Aug-29 07:33N 38°49' W 074°28'6 6.4
2016-Aug-29 06:33N 38°45' W 074°35'7 6.6
2016-Aug-29 05:30N 38°46' W 074°44'7 7.1
2016-Aug-29 04:30N 38°46' W 074°53'8 7.4
2016-Aug-29 03:28N 38°48' W 075°03'1213.7
2016-Aug-29 02:33N 38°60' W 075°08'1616.1
2016-Aug-29 01:33N 39°14' W 075°18'1414.1
2016-Aug-29 00:33N 39°24' W 075°30'1110.9
2016-Aug-28 23:34N 39°35' W 075°33'1010.1
2016-Aug-28 22:33N 39°45' W 075°30'9 9.3
2016-Aug-28 21:33N 39°51' W 075°21'9 9.4
2016-Aug-28 20:33N 39°53' W 075°09'1 1.2
2016-Aug-28 19:33N 39°54' W 075°08'0 0.0
2016-Aug-28 18:33N 39°54' W 075°08'0 0.0
2016-Aug-28 17:33N 39°54' W 075°08'0 0.0
2016-Aug-28 16:33N 39°54' W 075°08'0 0.0
2016-Aug-28 15:33N 39°54' W 075°08'0 0.0
2016-Aug-28 14:33N 39°54' W 075°08'0 0.0
2016-Aug-28 13:33N 39°54' W 075°08'0 0.0
2016-Aug-28 12:33N 39°54' W 075°08'0 0.0
2016-Aug-28 11:33N 39°54' W 075°08'0 0.0
2016-Aug-28 10:33N 39°54' W 075°08'0 0.0
2016-Aug-28 09:33N 39°54' W 075°08'0 0.0
2016-Aug-28 08:33N 39°54' W 075°08'0 0.0
2016-Aug-28 07:33N 39°54' W 075°08'1 0.8
2016-Aug-28 06:33N 39°53' W 075°08'8 8.0
2016-Aug-28 05:33N 39°51' W 075°18'1111.0
2016-Aug-28 04:33N 39°44' W 075°30'1211.8
2016-Aug-28 03:34N 39°33' W 075°32'1212.3
2016-Aug-28 02:33N 39°21' W 075°27'1515.0
2016-Aug-28 01:33N 39°09' W 075°15'1615.5
2016-Aug-28 00:33N 38°56' W 075°06'1010.3
2016-Aug-27 23:33N 38°46' W 075°00'8 7.6
2016-Aug-27 22:31N 38°41' W 074°53'3 3.3
2016-Aug-27 21:31N 38°38' W 074°51'7 6.8
2016-Aug-27 20:26N 38°33' W 074°45'1910.1
2016-Aug-27 18:33N 38°16' W 074°32'1310.9
2016-Aug-27 17:25N 38°04' W 074°34'910.6
2016-Aug-27 16:31N 37°54' W 074°35'1010.5
2016-Aug-27 15:32N 37°44' W 074°37'1010.4
2016-Aug-27 14:33N 37°34' W 074°38'1110.2
2016-Aug-27 13:31N 37°24' W 074°40'2010.2
2016-Aug-27 11:33N 37°04' W 074°42'65912.7
2016-Aug-25 07:34N 26°57' W 079°45'1815.8
2016-Aug-25 06:24N 26°39' W 079°48'2815.3
2016-Aug-25 04:33N 26°12' W 079°57'1010.3
2016-Aug-25 03:33N 26°06' W 080°07'1 1.3
2016-Aug-25 02:34N 26°04' W 080°07'0 0.0
2016-Aug-25 01:33N 26°04' W 080°07'0 0.0
2016-Aug-25 00:33N 26°04' W 080°07'0 0.0
2016-Aug-24 23:33N 26°04' W 080°07'0 0.0
2016-Aug-24 22:27N 26°04' W 080°07'4 4.7
2016-Aug-24 21:33N 26°04' W 080°02'6 5.6
2016-Aug-24 20:33N 25°59' W 080°00'1111.2
2016-Aug-24 19:33N 25°48' W 079°60'1212.2
2016-Aug-24 18:33N 25°36' W 079°59'1212.4
2016-Aug-24 17:33N 25°23' W 079°60'  
Track history (hours):
 
Tides and Currents Weather Stations Pressure Air Temp Water Temp Dewpoint Dewpoint Depression Visibility Wind Speed Wind Dir Waves Ship Positions

Maersk Weymouth

Last reported at 2016-Aug-31 14:32 UTC. Time now 2016-Aug-31 23:35 UTC.
Position N 36°36' W 074°35'.

Length 175 m; draft 6.8 m.

Type: Cargo ship. MMSI: 477622100.

Date/timePositionNaut miles runAvg speedWind from/ knotsBaromVisibWave heightAir tempDewpointWater temp
2016-Aug-31 14:32N 36°36' W 074°35'1515.7
2016-Aug-31 13:33N 36°51' W 074°32'1616.2
2016-Aug-31 12:34N 37°07' W 074°29'1616.0
2016-Aug-31 11:33N 37°22' W 074°25'1616.1
2016-Aug-31 10:34N 37°38' W 074°21'1616.1
2016-Aug-31 09:33N 37°54' W 074°18'1615.8
2016-Aug-31 08:33N 38°09' W 074°14'6315.6
2016-Aug-31 04:32N 39°11' W 073°59'1715.3
2016-Aug-31 03:26N 39°28' W 073°55'1314.4
2016-Aug-31 02:33N 39°40' W 073°54'1515.1
2016-Aug-31 01:33N 39°55' W 073°52'2215.1
2016-Aug-31 00:06N 40°17' W 073°49'914.5
2016-Aug-30 23:30N 40°26' W 073°49'1111.7
2016-Aug-30 22:33N 40°32' W 074°01'8 8.2
2016-Aug-30 21:33N 40°39' W 074°08'2 2.4
2016-Aug-30 20:33N 40°39' W 074°11'0 0.0
2016-Aug-30 19:28N 40°39' W 074°11'0 0.0
2016-Aug-30 18:25N 40°39' W 074°11'0 0.0
2016-Aug-30 17:31N 40°39' W 074°11'0 0.0
2016-Aug-30 16:31N 40°39' W 074°11'0 0.0
2016-Aug-30 15:31N 40°39' W 074°11'0 0.0
2016-Aug-30 14:25N 40°39' W 074°11'0 0.0
2016-Aug-30 13:31N 40°39' W 074°11'0 0.0
2016-Aug-30 12:31N 40°39' W 074°11'0 0.0
2016-Aug-30 11:31N 40°39' W 074°11'2 2.0
2016-Aug-30 10:34N 40°39' W 074°09'7 7.2
2016-Aug-30 09:34N 40°34' W 074°02'1212.3
2016-Aug-30 08:33N 40°27' W 073°48'21 1.8
2016-Aug-29 20:33N 40°06' W 073°41'6 6.2
2016-Aug-29 19:33N 40°01' W 073°44'7 7.4
2016-Aug-29 18:33N 39°53' W 073°43'7 7.3
2016-Aug-29 17:33N 39°46' W 073°43'7 6.9
2016-Aug-29 16:33N 39°39' W 073°43'7 6.8
2016-Aug-29 15:33N 39°33' W 073°46'7 6.6
2016-Aug-29 14:33N 39°27' W 073°50'7 6.6
2016-Aug-29 13:33N 39°21' W 073°53'7 6.8
2016-Aug-29 12:33N 39°15' W 073°57'7 6.9
2016-Aug-29 11:33N 39°09' W 074°01'7 7.3
2016-Aug-29 10:33N 39°04' W 074°08'7 7.5
2016-Aug-29 09:33N 38°59' W 074°15'7 7.1
2016-Aug-29 08:33N 38°54' W 074°22'7 7.1
2016-Aug-29 07:33N 38°49' W 074°28'6 6.4
2016-Aug-29 06:33N 38°45' W 074°35'7 6.6
2016-Aug-29 05:30N 38°46' W 074°44'7 7.1
2016-Aug-29 04:30N 38°46' W 074°53'8 7.4
2016-Aug-29 03:28N 38°48' W 075°03'1213.7
2016-Aug-29 02:33N 38°60' W 075°08'1616.1
2016-Aug-29 01:33N 39°14' W 075°18'1414.1
2016-Aug-29 00:33N 39°24' W 075°30'1110.9
2016-Aug-28 23:34N 39°35' W 075°33'1010.1
2016-Aug-28 22:33N 39°45' W 075°30'9 9.3
2016-Aug-28 21:33N 39°51' W 075°21'9 9.4
2016-Aug-28 20:33N 39°53' W 075°09'1 1.2
2016-Aug-28 19:33N 39°54' W 075°08'0 0.0
2016-Aug-28 18:33N 39°54' W 075°08'0 0.0
2016-Aug-28 17:33N 39°54' W 075°08'0 0.0
2016-Aug-28 16:33N 39°54' W 075°08'0 0.0
2016-Aug-28 15:33N 39°54' W 075°08'0 0.0
2016-Aug-28 14:33N 39°54' W 075°08'0 0.0
2016-Aug-28 13:33N 39°54' W 075°08'0 0.0
2016-Aug-28 12:33N 39°54' W 075°08'0 0.0
2016-Aug-28 11:33N 39°54' W 075°08'0 0.0
2016-Aug-28 10:33N 39°54' W 075°08'0 0.0
2016-Aug-28 09:33N 39°54' W 075°08'0 0.0
2016-Aug-28 08:33N 39°54' W 075°08'0 0.0
2016-Aug-28 07:33N 39°54' W 075°08'1 0.8
2016-Aug-28 06:33N 39°53' W 075°08'8 8.0
2016-Aug-28 05:33N 39°51' W 075°18'1111.0
2016-Aug-28 04:33N 39°44' W 075°30'1211.8
2016-Aug-28 03:34N 39°33' W 075°32'1212.3
2016-Aug-28 02:33N 39°21' W 075°27'1515.0
2016-Aug-28 01:33N 39°09' W 075°15'1615.5
2016-Aug-28 00:33N 38°56' W 075°06'1010.3
2016-Aug-27 23:33N 38°46' W 075°00'8 7.6
2016-Aug-27 22:31N 38°41' W 074°53'3 3.3
2016-Aug-27 21:31N 38°38' W 074°51'7 6.8
2016-Aug-27 20:26N 38°33' W 074°45'1910.1
2016-Aug-27 18:33N 38°16' W 074°32'1310.9
2016-Aug-27 17:25N 38°04' W 074°34'910.6
2016-Aug-27 16:31N 37°54' W 074°35'1010.5
2016-Aug-27 15:32N 37°44' W 074°37'1010.4
2016-Aug-27 14:33N 37°34' W 074°38'1110.2
2016-Aug-27 13:31N 37°24' W 074°40'2010.2
2016-Aug-27 11:33N 37°04' W 074°42'65912.7
2016-Aug-25 07:34N 26°57' W 079°45'1815.8
2016-Aug-25 06:24N 26°39' W 079°48'2815.3
2016-Aug-25 04:33N 26°12' W 079°57'1010.3
2016-Aug-25 03:33N 26°06' W 080°07'1 1.3
2016-Aug-25 02:34N 26°04' W 080°07'0 0.0
2016-Aug-25 01:33N 26°04' W 080°07'0 0.0
2016-Aug-25 00:33N 26°04' W 080°07'0 0.0
2016-Aug-24 23:33N 26°04' W 080°07'0 0.0
2016-Aug-24 22:27N 26°04' W 080°07'4 4.7
2016-Aug-24 21:33N 26°04' W 080°02'6 5.6
2016-Aug-24 20:33N 25°59' W 080°00'1111.2
2016-Aug-24 19:33N 25°48' W 079°60'1212.2
2016-Aug-24 18:33N 25°36' W 079°59'1212.4
2016-Aug-24 17:33N 25°23' W 079°60'  

Dump ship's entire track history